Time;durP1;ratioP1;P1;durP2;ratioP2;P2;SDS_P1;SDS_P2;PMS_P1;PMS_P2;Temp;Humidity;BMP_temperature;BMP_pressure;BME280_temperature;BME280_humidity;BME280_pressure;Samples;Min_cycle;Max_cycle;Signal;HPM_P1;HPM_P2
2021/07/07 00:02:11;;;;;;;3.25;0.98;;;;;;;15.35;99.21;98671.34;5052969;28;20371;-67
2021/07/07 00:04:36;;;;;;;2.75;1.00;;;;;;;15.32;98.99;98669.09;5047761;28;20029;-67
2021/07/07 00:07:01;;;;;;;2.40;1.00;;;;;;;15.32;99.02;98663.66;5053033;28;20038;-66
2021/07/07 00:09:27;;;;;;;2.20;1.20;;;;;;;15.36;98.96;98675.75;5061797;28;20090;-67
2021/07/07 00:11:52;;;;;;;1.67;1.05;;;;;;;15.20;99.30;98641.03;5059590;28;20116;-67
2021/07/07 00:14:17;;;;;;;4.30;1.08;;;;;;;15.28;99.60;98648.88;5052368;28;20029;-67
2021/07/07 00:16:43;;;;;;;3.92;0.98;;;;;;;15.50;99.96;98679.06;5052721;28;20475;-67
2021/07/07 00:19:09;;;;;;;3.72;1.02;;;;;;;15.50;100.00;98674.44;5052499;28;20115;-67
2021/07/07 00:21:35;;;;;;;5.68;1.20;;;;;;;15.48;99.37;98687.50;5051109;28;20040;-67
2021/07/07 00:24:00;;;;;;;2.78;1.45;;;;;;;15.51;99.83;98687.00;5048633;28;20021;-67
2021/07/07 00:26:25;;;;;;;2.08;1.05;;;;;;;15.56;98.33;98683.56;5053174;28;20025;-67
2021/07/07 00:28:51;;;;;;;4.53;0.90;;;;;;;15.48;97.79;98679.31;5052831;28;20055;-68
2021/07/07 00:31:16;;;;;;;2.15;0.93;;;;;;;15.43;97.98;98683.81;5051692;28;20471;-67
2021/07/07 00:33:41;;;;;;;6.72;1.00;;;;;;;15.34;98.62;98688.78;5051239;28;20029;-67
2021/07/07 00:36:07;;;;;;;4.45;0.93;;;;;;;15.30;99.06;98696.63;5051960;28;20486;-68
2021/07/07 00:38:33;;;;;;;2.67;0.90;;;;;;;15.32;99.57;98691.75;5052799;28;20021;-68
2021/07/07 00:40:58;;;;;;;1.15;0.73;;;;;;;15.32;99.81;98693.63;5052800;28;20027;-67
2021/07/07 00:43:24;;;;;;;1.15;0.88;;;;;;;15.30;99.95;98695.75;5051585;28;20055;-67
2021/07/07 00:45:49;;;;;;;7.93;1.00;;;;;;;15.19;100.00;98681.06;5052311;28;20398;-67
2021/07/07 00:48:15;;;;;;;3.70;1.10;;;;;;;15.21;99.94;98687.13;5051503;28;20053;-67
2021/07/07 00:50:41;;;;;;;2.53;0.85;;;;;;;15.29;99.61;98683.22;5050894;28;20028;-67
2021/07/07 00:53:09;;;;;;;5.13;1.10;;;;;;;15.39;98.77;98669.81;5050852;28;20025;-67
2021/07/07 00:55:35;;;;;;;2.13;0.98;;;;;;;15.48;98.59;98662.97;5052591;28;20021;-67
2021/07/07 00:58:01;;;;;;;4.72;1.35;;;;;;;15.18;98.86;98635.00;5052182;28;20032;-67
2021/07/07 01:00:26;;;;;;;3.40;1.20;;;;;;;15.28;99.27;98657.84;5051672;28;20029;-67
2021/07/07 01:02:54;;;;;;;4.15;1.02;;;;;;;15.27;99.63;98658.09;5047248;28;20055;-67
2021/07/07 01:05:20;;;;;;;2.10;0.90;;;;;;;15.19;99.30;98661.16;5051593;28;20403;-67
2021/07/07 01:07:45;;;;;;;1.77;1.05;;;;;;;15.15;100.00;98670.91;5050859;28;20044;-67
2021/07/07 01:10:13;;;;;;;1.38;1.02;;;;;;;15.09;100.00;98672.66;5052408;28;20036;-67
2021/07/07 01:12:38;;;;;;;2.47;0.90;;;;;;;15.08;100.00;98674.56;5050153;28;20063;-67
2021/07/07 01:15:07;;;;;;;6.30;0.90;;;;;;;15.04;99.60;98681.56;5052139;28;20052;-68
2021/07/07 01:17:33;;;;;;;1.60;0.82;;;;;;;15.05;99.65;98679.66;5061049;28;20035;-67
2021/07/07 01:20:00;;;;;;;1.60;1.00;;;;;;;15.16;100.00;98688.91;5062825;28;20025;-68
2021/07/07 01:22:28;;;;;;;3.85;1.00;;;;;;;15.07;100.00;98674.81;5051269;28;20559;-68
2021/07/07 01:24:53;;;;;;;1.87;0.97;;;;;;;15.16;100.00;98675.28;5051342;28;20036;-67
2021/07/07 01:27:19;;;;;;;4.35;1.02;;;;;;;14.97;99.18;98650.84;5051161;28;20029;-67
2021/07/07 01:29:44;;;;;;;3.45;1.30;;;;;;;15.17;100.00;98669.59;5052016;28;20434;-67
2021/07/07 01:32:09;;;;;;;2.00;1.08;;;;;;;15.16;100.00;98662.47;5050819;28;20082;-67
2021/07/07 01:34:35;;;;;;;4.72;1.10;;;;;;;15.27;99.63;98655.34;5049077;28;20021;-67
2021/07/07 01:37:00;;;;;;;3.03;1.10;;;;;;;15.18;97.41;98614.03;5045961;28;20498;-68
2021/07/07 01:39:25;;;;;;;3.90;1.02;;;;;;;15.28;97.29;98648.88;5050813;28;20487;-67
2021/07/07 01:41:51;;;;;;;5.53;1.20;;;;;;;15.28;98.41;98670.66;5050672;28;20694;-67
2021/07/07 01:44:16;;;;;;;1.08;0.90;;;;;;;15.16;99.12;98657.03;5050837;28;20048;-67
2021/07/07 01:46:41;;;;;;;2.58;1.08;;;;;;;15.24;99.70;98667.56;5050814;28;20210;-67
2021/07/07 01:49:07;;;;;;;3.78;1.15;;;;;;;15.26;100.00;98656.44;5051797;28;20037;-67
2021/07/07 01:51:32;;;;;;;3.55;0.80;;;;;;;15.12;100.00;98632.16;5057056;28;20025;-67
2021/07/07 01:53:57;;;;;;;5.85;1.00;;;;;;;15.20;100.00;98646.50;5050624;28;20029;-67
2021/07/07 01:56:23;;;;;;;2.30;1.08;;;;;;;15.11;100.00;98665.91;5051153;28;20029;-67
2021/07/07 01:58:48;;;;;;;3.83;1.48;;;;;;;15.10;100.00;98683.31;5051655;28;20028;-67
2021/07/07 02:01:14;;;;;;;1.45;1.13;;;;;;;15.11;100.00;98674.06;5050415;28;20029;-68
2021/07/07 02:03:39;;;;;;;5.75;1.23;;;;;;;15.20;100.00;98690.09;5051921;28;20064;-67
2021/07/07 02:06:04;;;;;;;1.90;1.10;;;;;;;15.24;100.00;98685.81;5020761;28;20029;-67
2021/07/07 02:08:30;;;;;;;3.95;1.10;;;;;;;15.21;99.68;98689.03;5045097;28;20071;-67
2021/07/07 02:10:55;;;;;;;5.97;1.13;;;;;;;15.17;99.53;98693.28;5055386;28;20490;-68
2021/07/07 02:13:21;;;;;;;1.52;0.95;;;;;;;15.15;100.00;98704.44;5054675;28;20033;-67
2021/07/07 02:15:46;;;;;;;1.90;1.00;;;;;;;15.00;100.00;98685.81;5055603;28;20032;-67
2021/07/07 02:18:11;;;;;;;2.63;0.93;;;;;;;15.27;100.00;98704.41;5054818;28;20387;-67
2021/07/07 02:20:41;;;;;;;4.55;1.13;;;;;;;15.25;100.00;98712.03;5051200;28;20399;-67
2021/07/07 02:23:11;;;;;;;2.65;1.08;;;;;;;15.22;100.00;98699.69;5051117;28;20029;-67
2021/07/07 02:25:38;;;;;;;6.20;1.10;;;;;;;15.24;100.00;98707.63;5060167;28;20036;-67
2021/07/07 02:28:05;;;;;;;4.10;0.98;;;;;;;15.17;100.00;98691.41;5055349;28;20526;-67
2021/07/07 02:30:33;;;;;;;1.17;1.00;;;;;;;15.03;100.00;98676.31;5054408;28;20045;-67
2021/07/07 02:32:59;;;;;;;1.83;1.20;;;;;;;15.16;100.00;98697.06;5053775;28;20451;-67
2021/07/07 02:35:27;;;;;;;11.23;2.05;;;;;;;15.00;100.00;98671.34;5054522;28;20029;-67
2021/07/07 02:37:54;;;;;;;1.15;0.82;;;;;;;15.10;100.00;98685.22;5054236;28;20055;-67
2021/07/07 02:40:23;;;;;;;2.53;0.90;;;;;;;15.10;100.00;98696.94;5054916;28;20036;-68
2021/07/07 02:42:49;;;;;;;3.97;1.10;;;;;;;15.10;100.00;98701.56;5053492;28;20028;-68
2021/07/07 02:45:15;;;;;;;4.50;0.95;;;;;;;15.12;100.00;98696.72;5054534;28;20033;-67
2021/07/07 02:47:42;;;;;;;2.90;1.50;;;;;;;15.12;100.00;98694.00;5054463;28;20560;-67
2021/07/07 02:50:09;;;;;;;6.72;1.10;;;;;;;15.13;100.00;98680.13;5054251;28;20040;-67
2021/07/07 02:52:38;;;;;;;3.92;0.80;;;;;;;15.13;100.00;98671.94;5054255;28;20024;-67
2021/07/07 02:55:04;;;;;;;1.00;0.90;;;;;;;15.17;100.00;98669.59;5055350;28;20049;-67
2021/07/07 02:57:55;;;;;;;1.10;1.00;;;;;;;15.16;100.00;98678.00;5046422;28;20053;-67
2021/07/07 03:00:15;;;;;;;12.85;1.35;;;;;;;15.17;100.00;98680.50;5053158;28;20036;-68
2021/07/07 03:02:40;;;;;;;3.92;1.08;;;;;;;15.10;100.00;98691.50;5053896;28;20056;-67
2021/07/07 03:05:06;;;;;;;1.70;1.23;;;;;;;15.08;100.00;98690.91;5054709;28;20517;-67
2021/07/07 03:07:31;;;;;;;3.65;1.20;;;;;;;15.12;100.00;98705.72;5053172;28;20127;-67
2021/07/07 03:09:56;;;;;;;9.52;1.30;;;;;;;15.16;100.00;98705.25;5053836;28;20021;-68
2021/07/07 03:12:22;;;;;;;6.68;1.20;;;;;;;15.14;100.00;98710.94;5052940;28;20116;-67
2021/07/07 03:14:47;;;;;;;8.77;1.10;;;;;;;15.18;100.00;98716.75;5053947;28;20067;-67
2021/07/07 03:17:13;;;;;;;1.48;1.10;;;;;;;15.13;100.00;98712.00;5061954;28;20142;-70
2021/07/07 03:19:38;;;;;;;2.80;1.00;;;;;;;15.22;100.00;98717.91;5047626;28;20352;-73
2021/07/07 03:22:03;;;;;;;4.13;1.15;;;;;;;15.15;100.00;98711.78;5051435;28;20506;-73
2021/07/07 03:24:29;;;;;;;9.63;1.65;;;;;;;15.03;100.00;98701.66;5043821;28;20028;-71
2021/07/07 03:26:54;;;;;;;4.45;1.92;;;;;;;15.38;100.00;98711.78;5043882;28;20213;-70
2021/07/07 03:29:19;;;;;;;3.70;1.98;;;;;;;15.43;99.82;98706.47;5053669;28;20036;-70
2021/07/07 03:31:45;;;;;;;2.47;1.77;;;;;;;15.29;99.71;98680.50;5051460;28;20102;-70
2021/07/07 03:34:10;;;;;;;2.50;1.70;;;;;;;15.41;100.00;98677.78;5049878;28;20099;-71
2021/07/07 03:36:35;;;;;;;4.40;1.55;;;;;;;15.28;99.78;98667.94;5047382;28;20028;-73
2021/07/07 03:39:00;;;;;;;2.90;1.88;;;;;;;15.32;100.00;98688.19;5037485;28;20454;-69
2021/07/07 03:41:26;;;;;;;4.32;2.08;;;;;;;15.09;99.87;98681.69;5034658;28;20108;-72
2021/07/07 03:43:51;;;;;;;3.45;1.75;;;;;;;15.27;100.00;98704.41;5182986;22;20053;-72
2021/07/07 03:46:17;;;;;;;2.17;1.80;;;;;;;15.15;100.00;98709.88;5032746;28;20061;-72
2021/07/07 03:48:43;;;;;;;6.15;1.83;;;;;;;15.18;100.00;98714.84;5033054;28;20033;-76
2021/07/07 03:51:08;;;;;;;2.90;2.10;;;;;;;15.24;100.00;98719.34;5033415;28;20030;-73
2021/07/07 03:53:33;;;;;;;4.88;2.28;;;;;;;15.15;100.00;98728.13;5045217;28;20058;-73
2021/07/07 03:55:59;;;;;;;4.72;2.13;;;;;;;15.12;100.00;98732.97;5034309;28;20448;-73
2021/07/07 03:58:24;;;;;;;2.78;1.85;;;;;;;15.22;100.00;98754.22;5044156;28;20557;-73
2021/07/07 04:00:50;;;;;;;5.07;1.92;;;;;;;15.13;100.00;98739.25;5033465;28;20036;-73
2021/07/07 04:03:15;;;;;;;7.75;2.20;;;;;;;15.10;100.00;98732.38;5047267;28;20388;-75
2021/07/07 04:05:41;;;;;;;6.35;2.83;;;;;;;15.28;100.00;98712.38;5047107;28;20119;-76
2021/07/07 04:08:06;;;;;;;2.25;1.63;;;;;;;15.31;100.00;98692.00;5030528;28;20028;-73
2021/07/07 04:10:32;;;;;;;3.33;1.95;;;;;;;15.28;100.00;98679.66;5053662;28;20028;-73
2021/07/07 04:12:57;;;;;;;3.80;2.30;;;;;;;15.38;100.00;98700.88;5033936;28;20037;-76
2021/07/07 04:15:22;;;;;;;3.05;2.08;;;;;;;15.35;100.00;98690.44;5034770;28;20021;-77
2021/07/07 04:17:48;;;;;;;3.20;2.10;;;;;;;15.42;100.00;98710.25;5054213;28;20021;-77
2021/07/07 04:20:16;;;;;;;2.88;2.03;;;;;;;15.36;100.00;98726.72;5053516;28;20039;-73
2021/07/07 04:22:42;;;;;;;4.68;2.10;;;;;;;15.32;100.00;98727.19;5049337;28;20032;-76
2021/07/07 04:25:09;;;;;;;2.53;1.90;;;;;;;15.21;100.00;98740.81;5052224;28;20029;-78
2021/07/07 04:27:36;;;;;;;3.17;1.75;;;;;;;15.26;100.00;98740.94;5042524;28;20395;-69
2021/07/07 04:30:06;;;;;;;3.22;1.75;;;;;;;15.31;100.00;98741.88;5046493;28;20029;-70
2021/07/07 04:32:32;;;;;;;2.60;1.90;;;;;;;15.32;100.00;98743.53;5046239;28;20383;-72
2021/07/07 04:34:57;;;;;;;2.75;1.80;;;;;;;15.34;100.00;98741.41;5052459;28;20032;-71
2021/07/07 04:37:22;;;;;;;3.13;1.90;;;;;;;15.33;100.00;98737.03;5052467;28;20033;-69
2021/07/07 04:39:48;;;;;;;6.25;2.15;;;;;;;15.39;100.00;98735.25;5052959;28;20029;-70
2021/07/07 04:42:13;;;;;;;2.42;1.77;;;;;;;15.50;100.00;98731.69;5051982;28;20111;-70
2021/07/07 04:44:38;;;;;;;5.40;2.00;;;;;;;15.41;100.00;98722.22;5047100;28;20022;-73
2021/07/07 04:47:04;;;;;;;2.83;2.10;;;;;;;15.62;100.00;98739.06;5040971;28;20034;-71
2021/07/07 04:49:29;;;;;;;2.42;1.58;;;;;;;15.55;99.27;98745.44;5052022;28;20048;-71
2021/07/07 04:51:55;;;;;;;1.90;1.45;;;;;;;15.64;100.00;98750.53;5050464;28;20025;-74
2021/07/07 04:54:20;;;;;;;5.90;2.00;;;;;;;15.59;100.00;98764.06;5034581;28;20028;-73
2021/07/07 04:56:46;;;;;;;4.63;2.22;;;;;;;15.60;100.00;98772.00;5051630;28;20397;-74
2021/07/07 04:59:11;;;;;;;3.65;2.30;;;;;;;15.54;100.00;98753.88;5050897;28;20118;-70
2021/07/07 05:01:38;;;;;;;6.40;2.38;;;;;;;15.62;100.00;98763.59;5052798;28;20055;-72
2021/07/07 05:04:05;;;;;;;7.45;2.33;;;;;;;15.61;100.00;98756.47;5052735;28;20060;-74
2021/07/07 05:06:30;;;;;;;3.67;1.90;;;;;;;15.68;100.00;98770.81;5052915;28;20406;-74
2021/07/07 05:08:55;;;;;;;3.35;2.35;;;;;;;15.53;100.00;98771.28;5052992;28;20025;-75
2021/07/07 05:11:21;;;;;;;5.88;2.53;;;;;;;15.60;100.00;98776.63;5048224;28;20108;-71
2021/07/07 05:13:46;;;;;;;4.32;2.05;;;;;;;15.62;100.00;98778.06;5015734;28;20025;-71
2021/07/07 05:16:12;;;;;;;2.45;2.13;;;;;;;15.83;100.00;98757.56;5051526;28;20564;-72
2021/07/07 05:18:37;;;;;;;3.83;2.15;;;;;;;15.88;98.22;98775.97;5050252;28;20108;-71
2021/07/07 05:21:02;;;;;;;2.63;2.10;;;;;;;15.93;98.59;98779.63;5050374;28;20017;-70
2021/07/07 05:23:28;;;;;;;2.70;1.88;;;;;;;15.96;97.88;98770.97;5045969;28;20033;-73
2021/07/07 05:25:54;;;;;;;4.28;2.28;;;;;;;16.12;97.43;98774.84;5051294;28;20025;-69
2021/07/07 05:28:19;;;;;;;3.50;2.03;;;;;;;16.06;98.22;98783.16;5042350;28;20036;-72
2021/07/07 05:30:44;;;;;;;4.13;2.22;;;;;;;15.96;98.67;98803.72;5042504;28;20025;-74
2021/07/07 05:33:10;;;;;;;2.90;2.03;;;;;;;15.76;98.53;98787.69;5033055;28;20115;-74
2021/07/07 05:35:36;;;;;;;3.80;2.03;;;;;;;15.99;98.94;98800.50;5033783;28;20047;-75
2021/07/07 05:38:02;;;;;;;4.97;2.53;;;;;;;16.05;99.44;98806.91;5051039;28;20492;-68
2021/07/07 05:40:28;;;;;;;8.40;2.60;;;;;;;16.03;99.11;98802.75;5032835;28;20033;-76
2021/07/07 05:42:53;;;;;;;3.55;1.75;;;;;;;16.15;98.68;98814.50;5049797;28;20024;-77
2021/07/07 05:45:23;;;;;;;4.97;1.80;;;;;;;16.19;97.61;98815.66;5050848;28;20136;-73
2021/07/07 05:47:48;;;;;;;4.75;2.13;;;;;;;16.32;97.29;98793.56;5051818;28;20025;-70
2021/07/07 05:50:16;;;;;;;2.80;1.80;;;;;;;16.61;96.40;98807.25;5051829;28;20029;-70
2021/07/07 05:52:41;;;;;;;2.88;1.60;;;;;;;16.78;94.82;98799.97;5051190;28;20437;-73
2021/07/07 05:55:07;;;;;;;6.63;1.50;;;;;;;16.96;93.46;98800.88;5050420;28;20032;-75
2021/07/07 05:57:39;;;;;;;1.83;1.48;;;;;;;17.03;92.57;98810.56;5033340;28;20048;-75
2021/07/07 06:00:12;;;;;;;3.75;1.52;;;;;;;16.99;89.96;98819.50;5051147;28;20106;-70
2021/07/07 06:02:38;;;;;;;2.03;1.20;;;;;;;17.17;89.03;98811.09;5051331;28;20032;-74
2021/07/07 06:05:05;;;;;;;3.45;1.50;;;;;;;16.81;89.47;98826.81;5032409;28;20438;-76
2021/07/07 06:07:31;;;;;;;4.60;1.70;;;;;;;16.72;91.61;98821.97;5053470;28;20025;-79
2021/07/07 06:09:56;;;;;;;3.78;1.60;;;;;;;16.77;92.83;98817.47;5056064;28;20028;-71
2021/07/07 06:12:21;;;;;;;6.43;1.77;;;;;;;16.85;91.89;98813.50;5040586;28;20061;-71
2021/07/07 06:14:46;;;;;;;5.15;1.85;;;;;;;16.83;91.96;98796.53;5040756;28;20161;-74
2021/07/07 06:17:12;;;;;;;2.80;1.60;;;;;;;16.66;91.51;98785.50;5052588;28;20490;-76
2021/07/07 06:19:37;;;;;;;2.92;1.85;;;;;;;16.99;91.87;98797.63;5033920;28;20025;-76
2021/07/07 06:22:03;;;;;;;4.53;2.15;;;;;;;17.08;90.96;98793.41;5050205;28;20115;-75
2021/07/07 06:24:29;;;;;;;2.63;2.20;;;;;;;17.15;89.72;98796.81;5045658;28;20071;-75
2021/07/07 06:26:54;;;;;;;3.45;2.22;;;;;;;17.30;88.47;98786.16;5047984;28;20037;-72
2021/07/07 06:29:20;;;;;;;6.10;2.28;;;;;;;17.34;89.20;98796.59;5050836;28;20406;-76
2021/07/07 06:31:46;;;;;;;3.33;2.30;;;;;;;17.45;88.37;98793.81;5047389;28;20044;-76
2021/07/07 06:34:11;;;;;;;3.22;1.42;;;;;;;17.31;88.62;98801.47;5030114;28;20055;-73
2021/07/07 06:36:37;;;;;;;2.47;1.80;;;;;;;17.16;89.95;98805.84;5020545;28;20068;-75
2021/07/07 06:39:03;;;;;;;2.60;2.10;;;;;;;17.03;90.74;98807.84;5033253;28;20609;-75
2021/07/07 06:41:28;;;;;;;3.17;1.58;;;;;;;17.16;90.81;98834.03;5051792;28;20017;-74
2021/07/07 06:43:53;;;;;;;4.95;1.20;;;;;;;17.41;91.11;98838.31;5031358;28;20303;-75
2021/07/07 06:46:19;;;;;;;1.58;1.40;;;;;;;17.35;90.53;98826.44;5051499;28;20163;-75
2021/07/07 06:48:44;;;;;;;2.38;1.60;;;;;;;17.31;90.01;98828.81;5036537;28;20043;-69
2021/07/07 06:51:09;;;;;;;1.63;1.27;;;;;;;17.27;89.78;98835.06;5054026;28;20086;-70
2021/07/07 06:53:35;;;;;;;1.45;1.05;;;;;;;17.51;87.96;98830.28;5044709;28;20022;-69
2021/07/07 06:56:00;;;;;;;2.00;1.25;;;;;;;17.60;87.92;98833.41;5045981;28;20436;-70
2021/07/07 06:58:25;;;;;;;2.80;1.20;;;;;;;17.44;88.01;98835.88;5043828;28;20040;-66
2021/07/07 07:00:51;;;;;;;3.25;1.58;;;;;;;17.43;87.96;98844.38;5040518;28;20032;-69
2021/07/07 07:03:16;;;;;;;2.45;1.50;;;;;;;17.38;88.54;98855.22;5039760;28;20653;-68
2021/07/07 07:05:41;;;;;;;2.67;1.10;;;;;;;17.50;87.99;98850.47;5045246;28;20032;-69
2021/07/07 07:08:07;;;;;;;5.50;1.58;;;;;;;17.50;87.39;98851.34;5044530;28;20198;-70
2021/07/07 07:10:32;;;;;;;4.22;1.70;;;;;;;17.29;88.18;98861.09;5040607;28;20024;-69
2021/07/07 07:12:57;;;;;;;2.72;1.73;;;;;;;17.14;89.11;98874.47;5042397;28;20391;-68
2021/07/07 07:15:23;;;;;;;2.50;1.45;;;;;;;17.20;89.91;98878.94;5044259;28;20077;-69
2021/07/07 07:17:48;;;;;;;4.65;1.50;;;;;;;17.40;90.49;98878.50;5042351;28;20025;-67
2021/07/07 07:20:17;;;;;;;3.90;1.75;;;;;;;17.50;91.20;98888.78;5041817;28;20398;-76
2021/07/07 07:22:43;;;;;;;2.15;1.33;;;;;;;17.66;91.28;98893.47;5046339;28;20029;-74
2021/07/07 07:25:11;;;;;;;4.28;1.42;;;;;;;17.71;90.19;98901.75;5053733;28;20054;-71
2021/07/07 07:27:37;;;;;;;2.03;1.13;;;;;;;17.72;89.68;98908.88;5052735;28;20029;-71
2021/07/07 07:30:07;;;;;;;1.95;1.13;;;;;;;17.73;89.23;98909.69;5053947;28;20025;-68
2021/07/07 07:32:33;;;;;;;2.88;1.20;;;;;;;17.69;89.29;98892.97;5049534;28;20500;-69
2021/07/07 07:34:59;;;;;;;3.22;1.20;;;;;;;17.80;88.23;98899.47;5053025;28;20025;-73
2021/07/07 07:37:26;;;;;;;3.00;1.05;;;;;;;18.01;87.96;98888.84;5034452;28;20375;-71
2021/07/07 07:39:54;;;;;;;3.08;1.30;;;;;;;18.15;85.99;98869.06;5053940;28;20025;-71
2021/07/07 07:42:20;;;;;;;1.73;1.02;;;;;;;18.22;83.90;98865.34;5053359;28;20068;-72
2021/07/07 07:44:46;;;;;;;1.98;0.73;;;;;;;18.66;82.84;98887.34;5035563;28;20060;-73
2021/07/07 07:47:13;;;;;;;1.13;0.82;;;;;;;18.77;81.39;98880.91;5052306;28;20032;-74
2021/07/07 07:49:39;;;;;;;2.17;1.25;;;;;;;19.10;80.66;98874.47;5034939;28;20051;-72
2021/07/07 07:52:05;;;;;;;2.05;0.95;;;;;;;19.47;78.15;98869.09;5052625;28;20474;-68
2021/07/07 07:54:32;;;;;;;1.48;0.95;;;;;;;19.91;75.62;98871.69;5053546;28;20025;-73
2021/07/07 07:56:58;;;;;;;2.35;1.10;;;;;;;19.90;74.96;98878.25;5053692;28;20033;-68
2021/07/07 07:59:24;;;;;;;1.40;1.10;;;;;;;19.91;75.99;98890.91;5053725;28;20036;-69
2021/07/07 08:01:49;;;;;;;5.20;1.40;;;;;;;19.52;76.23;98886.66;5047641;28;20025;-74
2021/07/07 08:04:17;;;;;;;1.63;0.95;;;;;;;19.03;76.53;98874.66;5053247;28;20086;-72
2021/07/07 08:06:42;;;;;;;1.92;1.23;;;;;;;19.51;75.62;98868.56;5053109;28;20459;-75
2021/07/07 08:09:08;;;;;;;2.13;1.10;;;;;;;19.80;74.69;98880.91;5033047;28;20174;-72
2021/07/07 08:11:33;;;;;;;2.25;1.00;;;;;;;20.12;73.64;98866.31;5052427;28;20025;-76
2021/07/07 08:13:58;;;;;;;1.88;1.25;;;;;;;20.25;71.81;98868.66;5034556;28;20024;-73
2021/07/07 08:16:23;;;;;;;2.72;0.98;;;;;;;20.16;71.16;98870.22;5035598;28;20020;-72
2021/07/07 08:18:49;;;;;;;2.22;0.93;;;;;;;20.03;74.02;98906.38;5031233;28;20025;-72
2021/07/07 08:21:15;;;;;;;2.05;1.00;;;;;;;20.17;73.62;98899.31;5035061;28;20030;-72
2021/07/07 08:23:40;;;;;;;1.67;0.80;;;;;;;20.12;72.73;98913.03;5053036;28;20016;-73
2021/07/07 08:26:06;;;;;;;4.97;1.02;;;;;;;19.90;73.28;98916.69;5052980;28;20028;-72
2021/07/07 08:28:31;;;;;;;2.13;1.05;;;;;;;20.01;73.77;98927.78;5050926;28;20033;-72
2021/07/07 08:30:56;;;;;;;1.88;0.88;;;;;;;20.07;72.08;98930.31;5038342;28;20061;-72
2021/07/07 08:33:22;;;;;;;1.88;0.80;;;;;;;20.04;71.57;98917.13;5038501;28;20027;-74
2021/07/07 08:35:47;;;;;;;3.47;0.80;;;;;;;19.98;70.62;98917.31;5043262;28;20086;-79
2021/07/07 08:38:13;;;;;;;5.38;0.65;;;;;;;20.00;70.52;98909.66;5044262;28;20395;-75
2021/07/07 08:40:38;;;;;;;2.25;0.73;;;;;;;20.31;68.60;98919.78;5025615;28;20146;-75
2021/07/07 08:43:05;;;;;;;2.80;0.70;;;;;;;19.88;71.86;98923.53;5029608;28;20025;-73
2021/07/07 08:45:32;;;;;;;1.48;0.60;;;;;;;19.66;71.93;98920.84;5034596;28;20436;-74
2021/07/07 08:47:58;;;;;;;1.55;0.65;;;;;;;19.67;73.19;98931.59;5053427;28;20025;-74
2021/07/07 08:50:29;;;;;;;1.95;0.70;;;;;;;19.36;73.34;98924.94;5052506;28;20029;-77
2021/07/07 08:53:00;;;;;;;1.92;0.80;;;;;;;19.40;73.08;98938.97;5050835;28;20029;-71
2021/07/07 08:55:26;;;;;;;1.08;0.80;;;;;;;19.36;74.23;98935.94;5052753;28;20021;-75
2021/07/07 08:57:52;;;;;;;1.33;0.90;;;;;;;19.58;74.99;98929.56;5032728;28;20028;-73
2021/07/07 09:00:27;;;;;;;1.55;0.90;;;;;;;19.77;72.05;98921.81;5049444;28;20029;-71
2021/07/07 09:02:58;;;;;;;2.28;0.85;;;;;;;20.11;70.22;98922.38;5037923;28;20532;-71
2021/07/07 09:05:25;;;;;;;9.40;1.30;;;;;;;19.87;71.03;98922.72;5027049;28;20033;-72
2021/07/07 09:07:51;;;;;;;4.35;1.00;;;;;;;19.63;71.75;98941.41;5041883;28;20149;-71
2021/07/07 09:10:26;;;;;;;2.45;0.70;;;;;;;19.46;73.26;98930.53;5042815;28;20501;-78
2021/07/07 09:12:51;;;;;;;1.95;0.70;;;;;;;19.45;72.93;98915.16;5041668;28;20276;-73
2021/07/07 09:15:17;;;;;;;1.52;0.57;;;;;;;19.67;71.99;98903.31;5036948;28;20383;-74
2021/07/07 09:17:48;;;;;;;1.17;0.73;;;;;;;20.65;68.48;98900.22;5044444;28;20626;-79
2021/07/07 09:20:46;;;;;;;1.70;1.00;;;;;;;21.14;66.94;98930.16;5033272;28;20032;-75
2021/07/07 09:23:13;;;;;;;2.15;0.80;;;;;;;21.01;64.96;98947.97;5003273;28;20130;-75
2021/07/07 09:25:56;;;;;;;2.97;0.95;;;;;;;20.97;65.40;98938.59;5051010;28;20051;-74
2021/07/07 09:28:24;;;;;;;3.97;0.80;;;;;;;20.98;64.93;98934.75;5045577;28;20112;-67
2021/07/07 09:30:51;;;;;;;1.13;0.60;;;;;;;20.85;65.23;98953.66;5050228;28;20024;-69
2021/07/07 09:33:16;;;;;;;1.23;0.63;;;;;;;20.84;67.11;98952.00;5051692;28;20074;-69
2021/07/07 09:35:42;;;;;;;3.75;0.80;;;;;;;20.63;67.47;98954.63;5051568;28;20028;-71
2021/07/07 09:38:08;;;;;;;2.75;0.75;;;;;;;20.24;67.83;98973.28;5050564;28;20040;-76
2021/07/07 09:40:40;;;;;;;1.08;0.50;;;;;;;19.67;69.89;98967.28;5051003;28;20032;-70
2021/07/07 09:43:05;;;;;;;4.13;0.80;;;;;;;20.00;67.99;98954.41;5090194;22;20434;-73
2021/07/07 09:45:30;;;;;;;6.20;0.82;;;;;;;20.53;65.93;98951.78;5043991;28;20032;-76
2021/07/07 09:47:59;;;;;;;2.65;0.75;;;;;;;20.45;66.20;98955.03;5031744;28;20035;-75
2021/07/07 09:50:25;;;;;;;1.40;0.77;;;;;;;21.05;64.73;98951.00;5049062;28;20061;-68
2021/07/07 09:52:52;;;;;;;2.88;0.75;;;;;;;21.77;61.12;98959.50;5048226;28;20830;-69
2021/07/07 09:55:17;;;;;;;5.35;0.80;;;;;;;21.91;61.31;98963.41;5030515;28;20049;-68
2021/07/07 09:57:47;;;;;;;2.38;0.68;;;;;;;21.80;61.77;98967.25;5045871;28;20056;-68
2021/07/07 10:00:16;;;;;;;2.80;0.90;;;;;;;21.87;61.34;98949.34;5030066;28;20025;-74
2021/07/07 10:02:43;;;;;;;2.35;0.70;;;;;;;21.85;61.66;98956.22;5014540;28;20116;-71
2021/07/07 10:05:12;;;;;;;2.92;0.68;;;;;;;21.48;63.01;98972.94;5024472;28;20071;-70
2021/07/07 10:07:39;;;;;;;2.15;0.70;;;;;;;21.14;63.17;98973.31;4997190;28;20031;-70
2021/07/07 10:10:05;;;;;;;2.03;0.75;;;;;;;21.02;63.72;98962.56;5029138;28;20033;-70
2021/07/07 10:12:31;;;;;;;3.47;0.90;;;;;;;20.68;65.23;98945.59;5021457;28;20041;-72
2021/07/07 10:14:56;;;;;;;3.72;0.90;;;;;;;20.71;65.42;98973.38;5012516;28;20014;-70
2021/07/07 10:17:22;;;;;;;2.25;1.00;;;;;;;20.77;64.85;98958.56;5030714;28;20091;-68
2021/07/07 10:19:48;;;;;;;2.85;0.98;;;;;;;21.14;67.12;98963.19;5030965;28;20057;-68
2021/07/07 10:22:15;;;;;;;3.33;0.80;;;;;;;21.38;65.81;98952.56;5031793;28;20033;-68
2021/07/07 10:24:42;;;;;;;3.30;0.88;;;;;;;21.79;62.10;98971.91;5034570;28;20026;-68
2021/07/07 10:27:09;;;;;;;2.65;0.47;;;;;;;22.50;61.01;98956.53;5048724;28;20060;-68
2021/07/07 10:29:35;;;;;;;4.80;0.95;;;;;;;23.27;58.89;98950.84;5036353;28;20475;-68
2021/07/07 10:32:05;;;;;;;1.88;0.65;;;;;;;23.70;56.07;98951.13;5017793;28;20048;-69
2021/07/07 10:34:31;;;;;;;6.65;0.88;;;;;;;23.21;59.10;98943.66;5016766;28;20056;-68
2021/07/07 10:36:58;;;;;;;1.30;0.90;;;;;;;23.63;56.69;98937.63;5034303;28;20052;-68
2021/07/07 10:39:24;;;;;;;2.80;0.93;;;;;;;22.51;59.48;98964.53;5034713;28;20509;-67
2021/07/07 10:41:53;;;;;;;3.30;0.90;;;;;;;23.26;57.74;98963.78;5033618;28;20056;-67
2021/07/07 10:44:28;;;;;;;5.25;0.90;;;;;;;23.56;56.32;98970.28;5034083;28;20021;-67
2021/07/07 10:47:18;;;;;;;2.03;0.90;;;;;;;22.94;57.80;98964.97;5035009;28;20498;-68
2021/07/07 10:49:52;;;;;;;4.57;0.82;;;;;;;23.35;57.45;98961.28;5032783;28;20033;-68
2021/07/07 10:52:30;;;;;;;3.10;0.85;;;;;;;22.88;57.49;98957.84;5035322;28;20148;-67
2021/07/07 10:55:01;;;;;;;3.88;1.00;;;;;;;22.23;60.59;98965.09;5033742;28;20029;-68
2021/07/07 10:57:35;;;;;;;1.48;0.85;;;;;;;22.88;58.84;98968.03;5033934;28;20048;-67
2021/07/07 11:00:08;;;;;;;3.92;0.70;;;;;;;23.08;58.34;98970.78;5027802;28;20057;-67
2021/07/07 11:02:34;;;;;;;1.48;0.60;;;;;;;23.94;55.26;98962.31;5034939;28;20100;-68
2021/07/07 11:05:02;;;;;;;3.55;0.80;;;;;;;23.95;56.12;98969.53;5034371;28;20112;-66
2021/07/07 11:07:30;;;;;;;4.25;0.95;;;;;;;23.78;56.50;98980.94;5034750;28;20049;-66
2021/07/07 11:10:03;;;;;;;1.75;0.52;;;;;;;24.30;54.05;98970.34;5016889;28;20029;-67
2021/07/07 11:12:51;;;;;;;1.65;0.80;;;;;;;24.24;54.48;98970.41;5021848;28;20029;-68
2021/07/07 11:15:24;;;;;;;2.65;0.93;;;;;;;24.11;53.92;98968.28;5023028;28;20549;-67
2021/07/07 11:17:58;;;;;;;5.43;0.77;;;;;;;23.81;53.87;98975.66;5033942;28;20442;-67
2021/07/07 11:20:35;;;;;;;3.22;0.77;;;;;;;23.44;55.12;98965.09;5034353;28;20026;-67
2021/07/07 11:23:11;;;;;;;5.35;1.00;;;;;;;23.50;57.03;98977.78;5015654;28;20091;-67
2021/07/07 11:25:40;;;;;;;2.53;0.80;;;;;;;24.45;52.51;98950.88;5031258;28;20021;-71
2021/07/07 11:28:08;;;;;;;4.93;0.70;;;;;;;24.90;51.09;98957.06;5034510;28;20036;-73
2021/07/07 11:30:33;;;;;;;2.95;0.55;;;;;;;25.24;51.79;98956.16;5033790;28;20021;-69